Ermakovskoe, Russia
Current Conditions -  °F | °C
As of 11:00 AM on Thursday 27 Nov 2014 (Local Time) from UNAA Reporting Station
Overcast Overcast  
Wind Chill:   Ceiling: 8300
Heat Index: 19°   Visibility: 6mi
Dew Point: 16°   Wind: 9mph
Humidity: 86%   Direction: 150°SSE
Pressure: 29.59"   Gusts: NA
Location:  53.3°N, 92.42°E
Report Text: UNAA 270400Z 15004MPS 9999 SCT033CB OVC083 M07/M09 Q1002 NOSIGRMK QFE729 20090060
Loading
Personal Weather Stations






























Interactive Weather Map New forecast layout! Learn more

10-Day Weather Forecast

Advertisements
Track Severe Weather on mobile